Time;durP1;ratioP1;P1;durP2;ratioP2;P2;SDS_P1;SDS_P2;PMS_P1;PMS_P2;Temp;Humidity;BMP_temperature;BMP_pressure;BME280_temperature;BME280_humidity;BME280_pressure;Samples;Min_cycle;Max_cycle;Signal;HPM_P1;HPM_P2
2023/01/17 00:00:07;;;;;;;30.85;4.72;;;;;;;;;;5024994;28;20556;-73
2023/01/17 00:02:33;;;;;;;15.68;2.38;;;;;;;;;;5023611;28;20091;-72
2023/01/17 00:10:48;;;;;;;27.80;3.65;;;;;;;;;;4966932;28;20506;-73
2023/01/17 00:13:16;;;;;;;21.00;3.42;;;;;;;;;;4996827;28;20036;-72
2023/01/17 00:15:41;;;;;;;29.20;4.38;;;;;;;;;;5026115;28;20028;-72
2023/01/17 00:18:09;;;;;;;26.50;3.63;;;;;;;;;;5022992;28;20052;-73
2023/01/17 00:26:10;;;;;;;28.35;3.55;;;;;;;;;;5026135;28;20040;-73
2023/01/17 01:35:18;;;;;;;20.85;4.35;;;;;;;;;;5032164;28;20383;-71
2023/01/17 01:37:43;;;;;;;15.95;2.03;;;;;;;;;;5024459;28;20060;-71
2023/01/17 01:40:09;;;;;;;22.10;2.92;;;;;;;;;;5025271;28;20126;-72
2023/01/17 01:42:35;;;;;;;22.67;2.60;;;;;;;;;;5027841;28;20107;-73
2023/01/17 01:45:00;;;;;;;15.48;2.85;;;;;;;;;;5024375;28;20305;-74
2023/01/17 01:47:34;;;;;;;22.38;3.13;;;;;;;;;;5020865;28;20328;-71
2023/01/17 01:50:01;;;;;;;14.43;1.90;;;;;;;;;;4997999;28;20087;-72
2023/01/17 01:52:29;;;;;;;15.18;2.33;;;;;;;;;;5016245;28;20060;-73
2023/01/17 01:54:56;;;;;;;16.63;2.17;;;;;;;;;;5015990;28;20420;-72
2023/01/17 01:57:24;;;;;;;16.02;1.85;;;;;;;;;;5009768;28;20374;-73
2023/01/17 01:59:57;;;;;;;18.30;3.55;;;;;;;;;;5009987;28;20163;-73
2023/01/17 02:02:22;;;;;;;21.42;3.78;;;;;;;;;;5011126;28;20049;-73
2023/01/17 02:04:50;;;;;;;12.25;2.58;;;;;;;;;;5004167;28;20707;-72
2023/01/17 02:07:21;;;;;;;21.85;2.88;;;;;;;;;;5004254;28;20560;-73
2023/01/17 02:09:47;;;;;;;20.02;1.65;;;;;;;;;;5003901;28;20030;-72
2023/01/17 02:12:12;;;;;;;17.92;2.30;;;;;;;;;;5004166;28;20787;-72
2023/01/17 02:14:37;;;;;;;17.88;2.47;;;;;;;;;;5001592;28;20021;-72
2023/01/17 02:17:09;;;;;;;15.52;2.55;;;;;;;;;;5002738;28;20026;-72
2023/01/17 02:19:44;;;;;;;16.25;2.47;;;;;;;;;;5035100;28;20029;-72
2023/01/17 02:22:48;;;;;;;30.35;3.33;;;;;;;;;;5004243;28;20112;-72
2023/01/17 02:25:39;;;;;;;15.23;1.98;;;;;;;;;;4939560;28;20634;-72
2023/01/17 02:28:07;;;;;;;22.95;3.90;;;;;;;;;;4940067;28;20130;-71
2023/01/17 02:30:34;;;;;;;20.90;2.28;;;;;;;;;;4980687;28;20124;-73
2023/01/17 02:33:02;;;;;;;15.25;1.90;;;;;;;;;;5018709;28;20298;-72
2023/01/17 02:35:48;;;;;;;17.55;1.95;;;;;;;;;;5003382;28;20455;-71
2023/01/17 02:38:16;;;;;;;17.30;2.40;;;;;;;;;;5003833;28;20064;-72
2023/01/17 02:40:47;;;;;;;15.75;2.22;;;;;;;;;;5003392;28;20425;-73
2023/01/17 02:43:14;;;;;;;18.83;1.90;;;;;;;;;;5003851;28;20330;-72
2023/01/17 02:45:39;;;;;;;19.55;2.40;;;;;;;;;;5006326;28;20021;-72
2023/01/17 02:48:07;;;;;;;13.27;2.35;;;;;;;;;;5024216;28;20051;-72
2023/01/17 02:50:48;;;;;;;18.10;2.33;;;;;;;;;;5043145;28;20519;-73
2023/01/17 02:53:22;;;;;;;14.90;2.20;;;;;;;;;;5042043;28;20538;-72
2023/01/17 02:56:04;;;;;;;8.43;1.65;;;;;;;;;;5042302;28;20029;-72
2023/01/17 02:58:45;;;;;;;15.20;2.08;;;;;;;;;;5041751;28;20263;-72
2023/01/17 03:01:25;;;;;;;15.10;2.13;;;;;;;;;;5040956;28;20051;-72
2023/01/17 03:03:53;;;;;;;18.48;2.20;;;;;;;;;;5039775;28;20523;-72
2023/01/17 03:06:37;;;;;;;16.05;1.77;;;;;;;;;;5042611;28;20032;-71
2023/01/17 03:09:03;;;;;;;19.90;1.90;;;;;;;;;;5041832;28;20029;-72
2023/01/17 03:11:29;;;;;;;13.23;2.30;;;;;;;;;;5043666;28;20028;-73
2023/01/17 03:13:55;;;;;;;11.73;1.42;;;;;;;;;;5046160;28;20025;-73
2023/01/17 03:16:22;;;;;;;22.25;2.22;;;;;;;;;;5050767;28;20424;-73
2023/01/17 03:18:48;;;;;;;19.10;2.05;;;;;;;;;;5030699;28;20470;-72
2023/01/17 03:21:13;;;;;;;13.75;1.73;;;;;;;;;;5032124;28;20021;-73
2023/01/17 03:23:39;;;;;;;9.88;2.22;;;;;;;;;;5049908;28;20476;-73
2023/01/17 03:26:04;;;;;;;13.20;1.52;;;;;;;;;;5030057;28;20580;-73
2023/01/17 03:28:30;;;;;;;16.15;2.50;;;;;;;;;;5050949;28;20568;-74
2023/01/17 03:30:57;;;;;;;18.05;2.47;;;;;;;;;;5052282;28;20032;-73
2023/01/17 03:33:23;;;;;;;19.90;2.90;;;;;;;;;;5055516;28;20071;-74
2023/01/17 03:35:48;;;;;;;13.10;1.95;;;;;;;;;;5053413;28;20044;-74
2023/01/17 03:38:14;;;;;;;15.50;2.03;;;;;;;;;;5052652;28;20024;-74
2023/01/17 03:40:40;;;;;;;13.25;1.60;;;;;;;;;;5051252;28;20123;-74
2023/01/17 03:43:05;;;;;;;16.40;2.00;;;;;;;;;;5050647;28;20148;-73
2023/01/17 03:45:30;;;;;;;17.90;2.22;;;;;;;;;;5039257;28;20587;-73
2023/01/17 03:47:56;;;;;;;15.63;2.65;;;;;;;;;;5054472;28;20024;-73
2023/01/17 03:50:22;;;;;;;22.20;2.28;;;;;;;;;;5056379;28;20038;-73
2023/01/17 03:52:48;;;;;;;16.23;2.15;;;;;;;;;;5055505;28;20218;-73
2023/01/17 03:55:13;;;;;;;17.90;2.60;;;;;;;;;;5051100;28;20033;-74
2023/01/17 03:57:38;;;;;;;13.68;1.55;;;;;;;;;;5053180;28;20497;-73
2023/01/17 04:00:04;;;;;;;9.88;1.83;;;;;;;;;;5055961;28;20090;-73
2023/01/17 04:02:30;;;;;;;17.80;1.92;;;;;;;;;;5048661;28;20488;-74
2023/01/17 04:04:55;;;;;;;12.95;1.42;;;;;;;;;;5053209;28;20210;-73
2023/01/17 04:07:21;;;;;;;17.92;1.75;;;;;;;;;;5051438;28;20029;-74
2023/01/17 04:09:47;;;;;;;10.93;1.58;;;;;;;;;;5050805;28;20106;-73
2023/01/17 04:12:12;;;;;;;11.75;1.35;;;;;;;;;;5045158;28;20453;-73
2023/01/17 04:14:40;;;;;;;14.82;2.28;;;;;;;;;;5048820;28;20024;-74
2023/01/17 04:17:06;;;;;;;19.67;2.63;;;;;;;;;;5054154;28;20025;-74
2023/01/17 04:19:32;;;;;;;15.25;1.85;;;;;;;;;;5055781;28;20554;-74
2023/01/17 04:21:58;;;;;;;10.10;1.65;;;;;;;;;;5053180;28;20025;-74
2023/01/17 04:24:23;;;;;;;12.00;1.30;;;;;;;;;;5053432;28;20101;-73
2023/01/17 04:26:49;;;;;;;14.50;1.40;;;;;;;;;;5055505;28;20566;-73
2023/01/17 04:29:14;;;;;;;8.25;1.30;;;;;;;;;;5053303;28;20219;-74
2023/01/17 04:31:39;;;;;;;10.27;1.77;;;;;;;;;;5053174;28;20032;-74
2023/01/17 04:34:04;;;;;;;17.25;1.88;;;;;;;;;;5049283;28;20751;-74
2023/01/17 04:36:31;;;;;;;15.02;1.75;;;;;;;;;;5049635;28;20287;-74
2023/01/17 04:38:56;;;;;;;11.73;2.15;;;;;;;;;;5045869;28;20024;-74
2023/01/17 04:41:21;;;;;;;17.85;2.90;;;;;;;;;;5048567;28;20652;-74
2023/01/17 04:43:46;;;;;;;10.60;1.65;;;;;;;;;;5031791;28;20037;-73
2023/01/17 04:46:12;;;;;;;11.52;1.67;;;;;;;;;;5024787;28;20112;-73
2023/01/17 04:48:37;;;;;;;16.48;2.10;;;;;;;;;;5039019;28;20508;-73
2023/01/17 04:51:03;;;;;;;16.63;2.25;;;;;;;;;;5040561;28;20031;-73
2023/01/17 04:53:29;;;;;;;10.50;2.22;;;;;;;;;;5040598;28;20271;-73
2023/01/17 04:55:54;;;;;;;16.00;1.95;;;;;;;;;;5051809;28;20055;-73
2023/01/17 04:58:20;;;;;;;17.95;2.78;;;;;;;;;;5055776;28;20082;-74
2023/01/17 05:00:49;;;;;;;16.77;1.98;;;;;;;;;;5053197;28;20567;-74
2023/01/17 05:03:17;;;;;;;22.75;1.92;;;;;;;;;;5056800;28;20040;-74
2023/01/17 05:05:43;;;;;;;16.63;2.28;;;;;;;;;;5058739;28;20036;-74
2023/01/17 05:08:08;;;;;;;18.48;2.28;;;;;;;;;;5044372;28;20037;-73
2023/01/17 05:10:34;;;;;;;13.70;2.15;;;;;;;;;;5040664;28;20048;-71
2023/01/17 05:12:59;;;;;;;13.50;2.40;;;;;;;;;;5038370;28;20392;-73
2023/01/17 05:15:26;;;;;;;17.35;2.25;;;;;;;;;;5040911;28;20194;-72
2023/01/17 05:17:52;;;;;;;14.38;1.63;;;;;;;;;;5038413;28;20025;-73
2023/01/17 05:20:21;;;;;;;10.90;1.85;;;;;;;;;;5041232;28;20573;-73
2023/01/17 05:22:54;;;;;;;10.77;1.48;;;;;;;;;;5038906;28;20042;-73
2023/01/17 05:25:22;;;;;;;13.18;2.08;;;;;;;;;;5038200;28;20320;-72
2023/01/17 05:27:48;;;;;;;17.90;1.85;;;;;;;;;;5040579;28;20290;-72
2023/01/17 05:30:13;;;;;;;5.90;1.25;;;;;;;;;;5038152;28;20122;-72
2023/01/17 05:32:38;;;;;;;10.70;1.70;;;;;;;;;;5038173;28;20058;-72
2023/01/17 05:35:05;;;;;;;23.10;2.13;;;;;;;;;;5040098;28;20166;-73
2023/01/17 05:37:30;;;;;;;12.32;1.60;;;;;;;;;;5038575;28;20408;-73
2023/01/17 05:39:58;;;;;;;13.98;2.00;;;;;;;;;;5038868;28;20083;-74
2023/01/17 05:42:23;;;;;;;16.98;2.25;;;;;;;;;;5026419;28;20144;-73
2023/01/17 05:44:49;;;;;;;14.77;2.20;;;;;;;;;;5020398;28;20041;-73
2023/01/17 05:47:14;;;;;;;11.57;2.13;;;;;;;;;;5032819;28;20127;-73
2023/01/17 05:49:39;;;;;;;12.90;2.00;;;;;;;;;;5039993;28;20090;-73
2023/01/17 05:52:04;;;;;;;13.52;2.63;;;;;;;;;;5040957;28;20036;-73
2023/01/17 05:54:30;;;;;;;15.75;2.83;;;;;;;;;;5038365;28;20033;-73
2023/01/17 05:56:55;;;;;;;11.20;1.80;;;;;;;;;;5022009;28;20587;-73
2023/01/17 05:59:21;;;;;;;19.33;2.53;;;;;;;;;;5054451;28;20037;-76
2023/01/17 06:01:46;;;;;;;11.68;1.50;;;;;;;;;;5059781;28;20474;-73
2023/01/17 06:04:11;;;;;;;19.00;1.80;;;;;;;;;;5059908;28;20033;-73
2023/01/17 06:06:37;;;;;;;19.75;3.55;;;;;;;;;;5061726;28;20051;-75
2023/01/17 06:09:02;;;;;;;13.63;1.58;;;;;;;;;;5058338;28;20032;-74
2023/01/17 06:11:27;;;;;;;13.43;1.83;;;;;;;;;;5053252;28;20044;-72
2023/01/17 06:13:53;;;;;;;13.48;1.80;;;;;;;;;;5040108;28;20410;-73
2023/01/17 06:16:20;;;;;;;16.33;2.33;;;;;;;;;;5040517;28;20032;-73
2023/01/17 06:18:46;;;;;;;10.38;1.73;;;;;;;;;;5025168;28;20040;-73
2023/01/17 06:21:11;;;;;;;10.00;2.60;;;;;;;;;;5044783;28;20032;-72
2023/01/17 06:23:37;;;;;;;12.85;1.90;;;;;;;;;;5042167;28;20166;-73
2023/01/17 06:26:03;;;;;;;7.85;1.50;;;;;;;;;;5043793;28;20536;-73
2023/01/17 06:28:28;;;;;;;14.38;1.95;;;;;;;;;;5043991;28;20024;-74
2023/01/17 06:30:54;;;;;;;19.90;2.10;;;;;;;;;;5041218;28;20032;-73
2023/01/17 06:33:19;;;;;;;10.70;1.88;;;;;;;;;;5042773;28;20091;-72
2023/01/17 06:35:46;;;;;;;12.98;1.90;;;;;;;;;;5040837;28;20196;-72
2023/01/17 06:38:11;;;;;;;13.35;1.58;;;;;;;;;;5043505;28;20031;-73
2023/01/17 06:40:36;;;;;;;9.35;1.60;;;;;;;;;;5008618;28;20033;-73
2023/01/17 06:43:02;;;;;;;11.02;1.67;;;;;;;;;;5004348;28;20876;-73
2023/01/17 06:45:28;;;;;;;8.82;2.17;;;;;;;;;;5003953;28;20036;-73
2023/01/17 06:47:58;;;;;;;10.90;1.80;;;;;;;;;;5004147;28;20028;-73
2023/01/17 06:50:24;;;;;;;14.52;1.77;;;;;;;;;;5018255;28;20507;-74
2023/01/17 06:52:56;;;;;;;10.45;1.98;;;;;;;;;;5023683;28;20029;-74
2023/01/17 06:55:22;;;;;;;14.05;2.20;;;;;;;;;;5023072;28;20025;-74
2023/01/17 06:57:48;;;;;;;16.35;1.70;;;;;;;;;;5023201;28;20032;-73
2023/01/17 07:00:14;;;;;;;10.77;1.58;;;;;;;;;;5023040;28;20484;-74
2023/01/17 07:02:39;;;;;;;5.32;1.40;;;;;;;;;;5023920;28;20048;-75
2023/01/17 07:05:05;;;;;;;23.30;2.15;;;;;;;;;;5004155;28;20536;-73
2023/01/17 07:07:31;;;;;;;11.98;1.67;;;;;;;;;;5023677;28;20545;-74
2023/01/17 07:09:57;;;;;;;12.80;2.20;;;;;;;;;;5022252;28;20057;-74
2023/01/17 07:12:22;;;;;;;9.25;1.52;;;;;;;;;;5021330;28;20094;-74
2023/01/17 07:14:48;;;;;;;12.35;1.23;;;;;;;;;;5022677;28;20603;-74
2023/01/17 07:17:13;;;;;;;8.65;1.40;;;;;;;;;;5022669;28;20044;-74
2023/01/17 07:19:39;;;;;;;8.90;1.58;;;;;;;;;;5037391;28;20029;-75
2023/01/17 07:22:04;;;;;;;7.50;1.13;;;;;;;;;;5046027;28;20542;-76
2023/01/17 07:24:29;;;;;;;10.20;1.90;;;;;;;;;;5047077;28;20489;-74
2023/01/17 07:26:55;;;;;;;14.85;1.52;;;;;;;;;;5047890;28;20093;-75
2023/01/17 07:29:20;;;;;;;8.75;1.20;;;;;;;;;;5045641;28;20048;-77
2023/01/17 07:31:47;;;;;;;7.82;1.23;;;;;;;;;;5043431;28;20167;-73
2023/01/17 07:34:13;;;;;;;7.07;1.55;;;;;;;;;;5023854;28;20048;-74
2023/01/17 07:36:39;;;;;;;8.07;1.52;;;;;;;;;;5020560;28;20524;-74
2023/01/17 07:39:04;;;;;;;10.13;1.30;;;;;;;;;;5022730;28;20502;-74
2023/01/17 07:41:31;;;;;;;13.93;1.85;;;;;;;;;;5023253;28;20451;-75
2023/01/17 07:43:57;;;;;;;14.88;1.80;;;;;;;;;;5022890;28;21499;-74
2023/01/17 07:46:22;;;;;;;9.85;1.52;;;;;;;;;;5029562;28;20036;-75
2023/01/17 07:48:48;;;;;;;9.77;1.20;;;;;;;;;;5041002;28;20032;-74
2023/01/17 07:51:14;;;;;;;10.73;1.40;;;;;;;;;;5041824;28;20071;-74
2023/01/17 07:53:41;;;;;;;5.72;1.00;;;;;;;;;;5040535;28;20033;-73
2023/01/17 07:56:07;;;;;;;13.68;2.33;;;;;;;;;;5023534;28;20040;-74
2023/01/17 07:58:33;;;;;;;11.18;1.38;;;;;;;;;;5040135;28;20036;-75
2023/01/17 08:01:01;;;;;;;13.13;1.63;;;;;;;;;;5042800;28;20029;-74
2023/01/17 08:03:31;;;;;;;9.70;1.40;;;;;;;;;;5041787;28;20040;-75
2023/01/17 08:05:56;;;;;;;16.35;1.90;;;;;;;;;;5040675;28;20039;-73
2023/01/17 08:08:22;;;;;;;6.68;1.35;;;;;;;;;;5043450;28;20407;-74
2023/01/17 08:10:48;;;;;;;17.40;1.83;;;;;;;;;;5045710;28;20300;-76
2023/01/17 08:13:13;;;;;;;11.05;1.60;;;;;;;;;;5041533;28;20040;-74
2023/01/17 08:15:39;;;;;;;7.15;1.45;;;;;;;;;;5042245;28;20044;-74
2023/01/17 08:18:04;;;;;;;28.08;2.33;;;;;;;;;;5042637;28;20036;-74
2023/01/17 08:20:29;;;;;;;19.15;1.83;;;;;;;;;;5042300;28;20476;-74
2023/01/17 08:22:55;;;;;;;12.30;1.80;;;;;;;;;;5044001;28;20278;-74
2023/01/17 08:25:22;;;;;;;11.63;1.95;;;;;;;;;;5044308;28;20640;-75
2023/01/17 08:27:47;;;;;;;22.75;2.15;;;;;;;;;;5042939;28;20591;-74
2023/01/17 08:30:13;;;;;;;9.57;1.77;;;;;;;;;;5051829;28;20033;-76
2023/01/17 08:32:39;;;;;;;15.00;2.00;;;;;;;;;;5064087;28;20496;-75
2023/01/17 08:35:05;;;;;;;11.93;1.77;;;;;;;;;;5065192;28;20488;-77
2023/01/17 08:37:31;;;;;;;10.95;1.58;;;;;;;;;;5064758;28;20103;-76
2023/01/17 08:39:56;;;;;;;5.60;1.33;;;;;;;;;;5065048;28;20230;-77
2023/01/17 08:42:22;;;;;;;17.77;2.28;;;;;;;;;;5062596;28;20118;-76
2023/01/17 08:44:47;;;;;;;8.13;1.48;;;;;;;;;;5046427;28;20493;-75
2023/01/17 08:47:13;;;;;;;19.38;2.20;;;;;;;;;;5064528;28;20385;-77
2023/01/17 08:49:38;;;;;;;7.20;1.52;;;;;;;;;;5061583;28;20021;-76
2023/01/17 08:52:04;;;;;;;13.30;1.70;;;;;;;;;;5080091;28;20038;-76
2023/01/17 08:54:29;;;;;;;10.70;1.63;;;;;;;;;;5064592;28;20024;-76
2023/01/17 08:56:55;;;;;;;7.35;1.65;;;;;;;;;;5063823;28;20059;-77
2023/01/17 08:59:28;;;;;;;10.40;2.05;;;;;;;;;;5062480;28;20507;-77
2023/01/17 09:01:54;;;;;;;5.93;1.60;;;;;;;;;;5063568;28;20189;-77
2023/01/17 09:04:19;;;;;;;7.95;1.63;;;;;;;;;;5063640;28;20060;-75
2023/01/17 09:06:47;;;;;;;11.38;1.90;;;;;;;;;;5062769;28;20504;-77
2023/01/17 09:09:12;;;;;;;7.35;1.95;;;;;;;;;;5061955;28;20024;-77
2023/01/17 09:11:38;;;;;;;14.88;1.80;;;;;;;;;;5062819;28;20545;-75
2023/01/17 09:14:03;;;;;;;11.15;2.05;;;;;;;;;;5060109;28;20029;-77
2023/01/17 09:16:29;;;;;;;13.10;1.98;;;;;;;;;;5058810;28;20031;-76
2023/01/17 09:18:55;;;;;;;5.35;1.52;;;;;;;;;;5059604;28;20074;-76
2023/01/17 09:21:22;;;;;;;12.50;1.80;;;;;;;;;;5059607;28;20504;-78
2023/01/17 09:23:47;;;;;;;5.70;1.80;;;;;;;;;;5060656;28;20401;-77
2023/01/17 09:26:24;;;;;;;10.82;2.00;;;;;;;;;;5061039;28;20089;-76
2023/01/17 09:28:50;;;;;;;11.15;1.58;;;;;;;;;;5062485;28;20028;-76
2023/01/17 09:31:20;;;;;;;10.48;1.73;;;;;;;;;;5062720;28;20031;-77
2023/01/17 09:33:46;;;;;;;8.10;1.83;;;;;;;;;;5045913;28;20115;-78
2023/01/17 09:36:12;;;;;;;8.95;1.63;;;;;;;;;;5061427;28;20036;-78
2023/01/17 09:38:38;;;;;;;13.75;1.88;;;;;;;;;;5061312;28;20498;-78
2023/01/17 09:41:17;;;;;;;11.40;2.22;;;;;;;;;;5060760;28;20036;-75
2023/01/17 09:43:51;;;;;;;13.25;1.83;;;;;;;;;;5062822;28;20455;-75
2023/01/17 09:46:21;;;;;;;6.88;1.50;;;;;;;;;;5061657;28;20033;-75
2023/01/17 09:48:48;;;;;;;9.68;2.25;;;;;;;;;;5063981;28;20036;-75
2023/01/17 09:51:15;;;;;;;10.13;1.83;;;;;;;;;;5066029;28;20048;-77
2023/01/17 09:53:42;;;;;;;6.13;1.58;;;;;;;;;;5065739;28;20028;-75
2023/01/17 09:56:13;;;;;;;8.43;2.17;;;;;;;;;;5068510;28;20610;-74
2023/01/17 09:58:50;;;;;;;11.02;1.70;;;;;;;;;;5065764;28;20473;-74
2023/01/17 10:01:38;;;;;;;6.00;1.70;;;;;;;;;;5063013;28;20114;-75
2023/01/17 10:04:03;;;;;;;6.53;1.55;;;;;;;;;;5060696;28;20037;-75
2023/01/17 10:06:38;;;;;;;9.15;1.52;;;;;;;;;;5063746;28;20024;-76
2023/01/17 10:09:06;;;;;;;9.82;2.00;;;;;;;;;;5062356;28;20032;-76
2023/01/17 10:11:34;;;;;;;8.60;1.75;;;;;;;;;;5062807;28;20025;-76
2023/01/17 10:14:18;;;;;;;9.13;1.20;;;;;;;;;;5064771;28;20082;-77
2023/01/17 10:16:56;;;;;;;16.83;1.70;;;;;;;;;;5062903;28;20115;-77
2023/01/17 10:19:27;;;;;;;6.93;1.48;;;;;;;;;;5064137;28;20043;-76
2023/01/17 10:22:09;;;;;;;5.82;1.60;;;;;;;;;;5066165;28;20028;-76
2023/01/17 10:24:55;;;;;;;6.65;1.20;;;;;;;;;;5065002;28;20140;-75
2023/01/17 10:27:33;;;;;;;6.43;1.40;;;;;;;;;;5065068;28;20631;-77
2023/01/17 10:30:00;;;;;;;8.88;1.40;;;;;;;;;;5048473;28;20082;-76
2023/01/17 10:32:28;;;;;;;6.68;1.75;;;;;;;;;;5066723;28;20060;-75
2023/01/17 10:34:57;;;;;;;11.60;1.80;;;;;;;;;;5066555;28;20036;-77
2023/01/17 10:37:55;;;;;;;11.05;1.55;;;;;;;;;;5068322;28;20051;-76
2023/01/17 10:40:23;;;;;;;6.05;1.50;;;;;;;;;;5060248;28;20051;-77
2023/01/17 10:42:56;;;;;;;9.32;1.52;;;;;;;;;;5050019;28;20029;-78
2023/01/17 10:45:27;;;;;;;12.07;3.05;;;;;;;;;;5068471;28;20029;-77
2023/01/17 10:48:08;;;;;;;8.55;1.98;;;;;;;;;;5067327;28;20025;-77
2023/01/17 10:50:43;;;;;;;4.15;1.70;;;;;;;;;;5049397;28;20031;-76
2023/01/17 10:53:16;;;;;;;14.50;2.60;;;;;;;;;;5066396;28;20024;-77
2023/01/17 10:55:52;;;;;;;13.43;1.90;;;;;;;;;;5068305;28;20047;-76
2023/01/17 10:58:17;;;;;;;12.40;2.00;;;;;;;;;;5048123;28;20025;-76
2023/01/17 11:00:43;;;;;;;5.18;1.70;;;;;;;;;;5046720;28;20067;-77
2023/01/17 11:03:09;;;;;;;7.78;1.70;;;;;;;;;;5047234;28;20401;-78
2023/01/17 11:05:34;;;;;;;7.20;1.67;;;;;;;;;;5032985;28;20569;-74
2023/01/17 11:08:00;;;;;;;10.90;1.50;;;;;;;;;;5022460;28;20048;-75
2023/01/17 11:10:38;;;;;;;6.55;1.85;;;;;;;;;;5024847;28;20474;-75
2023/01/17 11:13:05;;;;;;;12.07;1.45;;;;;;;;;;5024267;28;20027;-74
2023/01/17 11:15:32;;;;;;;9.15;1.17;;;;;;;;;;5025711;28;20496;-76
2023/01/17 11:18:01;;;;;;;8.82;1.80;;;;;;;;;;5031839;28;20031;-76
2023/01/17 11:20:33;;;;;;;6.82;1.58;;;;;;;;;;5045954;28;20017;-77
2023/01/17 11:23:15;;;;;;;5.72;1.50;;;;;;;;;;5026940;28;20052;-76
2023/01/17 11:25:41;;;;;;;;;;;;;;;;;;5043549;28;20104;-77
2023/01/17 11:28:29;;;;;;;8.57;1.90;;;;;;;;;;5045374;28;20008;-75
2023/01/17 11:30:56;;;;;;;13.35;2.10;;;;;;;;;;5042972;28;20048;-75
2023/01/17 11:33:52;;;;;;;10.48;2.20;;;;;;;;;;5046904;28;20045;-76
2023/01/17 11:36:23;;;;;;;14.32;2.47;;;;;;;;;;5065551;28;20539;-76
2023/01/17 11:38:55;;;;;;;8.38;1.90;;;;;;;;;;5063388;28;20071;-75
2023/01/17 11:41:24;;;;;;;5.25;1.60;;;;;;;;;;5043687;28;20464;-76
2023/01/17 11:43:56;;;;;;;10.55;2.25;;;;;;;;;;5044690;28;20730;-76
2023/01/17 11:46:27;;;;;;;6.03;1.65;;;;;;;;;;5036996;28;20268;-76
2023/01/17 11:48:54;;;;;;;5.68;1.48;;;;;;;;;;5024391;28;20029;-75
2023/01/17 11:51:23;;;;;;;12.20;2.05;;;;;;;;;;5021654;28;20159;-75
2023/01/17 11:53:48;;;;;;;7.25;1.80;;;;;;;;;;5023306;28;20025;-74
2023/01/17 11:56:17;;;;;;;7.68;1.75;;;;;;;;;;5023676;28;20029;-75
2023/01/17 11:58:42;;;;;;;15.55;2.17;;;;;;;;;;5042623;28;20503;-77
2023/01/17 12:01:07;;;;;;;7.32;1.65;;;;;;;;;;5045232;28;20024;-76
2023/01/17 12:03:51;;;;;;;8.20;1.75;;;;;;;;;;5046212;28;20033;-77
2023/01/17 12:06:35;;;;;;;7.05;1.70;;;;;;;;;;5044154;28;20105;-77
2023/01/17 12:09:04;;;;;;;4.95;1.27;;;;;;;;;;5045371;28;20028;-76
2023/01/17 12:11:34;;;;;;;5.43;1.25;;;;;;;;;;5045921;28;20090;-75
2023/01/17 12:14:25;;;;;;;5.45;1.30;;;;;;;;;;5044587;28;20045;-76
2023/01/17 12:17:00;;;;;;;5.35;1.20;;;;;;;;;;5027906;28;20079;-77
2023/01/17 12:19:40;;;;;;;6.82;1.30;;;;;;;;;;5044187;28;20032;-75
2023/01/17 12:22:20;;;;;;;4.88;1.58;;;;;;;;;;5044270;28;20508;-75
2023/01/17 12:24:54;;;;;;;6.78;1.42;;;;;;;;;;5042733;28;20036;-76
2023/01/17 12:27:27;;;;;;;4.97;1.20;;;;;;;;;;5043486;28;20537;-76
2023/01/17 12:29:57;;;;;;;3.03;1.42;;;;;;;;;;5041641;28;20393;-75
2023/01/17 12:32:28;;;;;;;5.70;1.52;;;;;;;;;;5042010;28;20555;-76
2023/01/17 12:35:13;;;;;;;3.60;1.20;;;;;;;;;;5042136;28;20044;-76
2023/01/17 12:37:40;;;;;;;9.57;1.40;;;;;;;;;;5043197;28;20460;-77
2023/01/17 12:40:27;;;;;;;9.88;2.08;;;;;;;;;;5040191;28;20040;-75
2023/01/17 12:43:00;;;;;;;5.70;1.55;;;;;;;;;;5041649;28;20067;-76
2023/01/17 12:45:40;;;;;;;7.00;1.85;;;;;;;;;;5041277;28;20022;-76
2023/01/17 12:48:10;;;;;;;6.13;1.50;;;;;;;;;;5043130;28;20555;-74
2023/01/17 12:50:36;;;;;;;7.03;2.15;;;;;;;;;;5043705;28;20021;-76
2023/01/17 12:53:01;;;;;;;4.65;1.52;;;;;;;;;;5041490;28;20036;-77
2023/01/17 12:55:40;;;;;;;5.82;1.90;;;;;;;;;;5044716;28;20505;-75
2023/01/17 12:58:10;;;;;;;12.73;2.20;;;;;;;;;;5041335;28;20104;-74
2023/01/17 13:00:39;;;;;;;12.25;1.73;;;;;;;;;;5041943;28;20025;-76
2023/01/17 13:03:11;;;;;;;5.78;1.50;;;;;;;;;;5041879;28;20120;-75
2023/01/17 13:05:39;;;;;;;7.93;1.50;;;;;;;;;;5039452;28;20112;-74
2023/01/17 13:08:20;;;;;;;4.60;1.33;;;;;;;;;;5042577;28;20031;-76
2023/01/17 13:10:58;;;;;;;5.23;1.90;;;;;;;;;;5041465;28;20025;-76
2023/01/17 13:13:24;;;;;;;10.07;1.80;;;;;;;;;;5040916;28;20252;-76
2023/01/17 13:15:56;;;;;;;4.30;1.17;;;;;;;;;;5033386;28;20028;-76
2023/01/17 13:18:24;;;;;;;8.52;1.40;;;;;;;;;;5035338;28;20153;-75
2023/01/17 13:21:05;;;;;;;7.05;1.55;;;;;;;;;;5021733;28;20025;-76
2023/01/17 13:23:48;;;;;;;3.85;1.17;;;;;;;;;;5022345;28;20301;-76
2023/01/17 13:26:38;;;;;;;5.65;1.15;;;;;;;;;;5031754;28;20028;-76
2023/01/17 13:29:10;;;;;;;11.10;1.73;;;;;;;;;;5048244;28;20025;-74
2023/01/17 13:31:35;;;;;;;4.75;1.35;;;;;;;;;;5048007;28;20025;-75
2023/01/17 13:34:15;;;;;;;5.68;1.30;;;;;;;;;;5048870;28;20517;-77
2023/01/17 13:36:41;;;;;;;7.85;1.55;;;;;;;;;;5051034;28;20481;-76
2023/01/17 13:39:18;;;;;;;5.93;1.55;;;;;;;;;;5050646;28;20035;-77
2023/01/17 13:41:58;;;;;;;2.10;1.08;;;;;;;;;;5050235;28;20505;-76
2023/01/17 13:44:26;;;;;;;7.20;1.30;;;;;;;;;;5048986;28;20064;-75
2023/01/17 13:46:52;;;;;;;9.60;1.23;;;;;;;;;;5041056;28;20539;-75
2023/01/17 13:49:33;;;;;;;7.13;1.20;;;;;;;;;;5052672;28;20398;-75
2023/01/17 13:52:06;;;;;;;7.20;1.60;;;;;;;;;;5067287;28;20512;-76
2023/01/17 13:54:32;;;;;;;5.70;1.60;;;;;;;;;;5067178;28;20405;-75
2023/01/17 13:57:18;;;;;;;4.20;1.40;;;;;;;;;;5067848;28;20510;-76
2023/01/17 13:59:43;;;;;;;8.20;1.40;;;;;;;;;;5068542;28;20028;-76
2023/01/17 14:02:35;;;;;;;12.05;1.75;;;;;;;;;;5067897;28;20315;-75
2023/01/17 14:05:03;;;;;;;9.88;1.42;;;;;;;;;;5062804;28;20042;-76
2023/01/17 14:07:31;;;;;;;9.90;1.30;;;;;;;;;;5069258;28;20104;-76
2023/01/17 14:09:56;;;;;;;8.38;1.23;;;;;;;;;;5066482;28;20540;-75
2023/01/17 14:12:24;;;;;;;7.95;1.67;;;;;;;;;;5066340;28;20051;-76
2023/01/17 14:14:50;;;;;;;10.07;1.50;;;;;;;;;;5068973;28;20047;-76
2023/01/17 14:17:24;;;;;;;10.77;1.20;;;;;;;;;;5067279;28;20100;-77
2023/01/17 14:19:50;;;;;;;8.32;1.17;;;;;;;;;;5066965;28;20028;-77
2023/01/17 14:22:19;;;;;;;6.32;1.27;;;;;;;;;;5063398;28;20562;-75
2023/01/17 14:24:58;;;;;;;7.35;1.17;;;;;;;;;;5066184;28;20364;-75
2023/01/17 14:27:28;;;;;;;10.43;1.50;;;;;;;;;;5066876;28;20066;-76
2023/01/17 14:29:57;;;;;;;7.47;1.30;;;;;;;;;;5056291;28;20103;-75
2023/01/17 14:32:34;;;;;;;6.10;1.45;;;;;;;;;;5035589;28;20048;-75
2023/01/17 14:34:59;;;;;;;5.35;1.25;;;;;;;;;;5007576;28;20513;-74
2023/01/17 14:37:31;;;;;;;5.88;1.30;;;;;;;;;;5004793;28;20042;-75
2023/01/17 14:39:57;;;;;;;10.93;1.40;;;;;;;;;;5022656;28;20025;-75
2023/01/17 14:42:24;;;;;;;8.18;1.20;;;;;;;;;;5024587;28;20535;-74
2023/01/17 14:45:08;;;;;;;4.50;1.20;;;;;;;;;;5022762;28;20083;-75
2023/01/17 14:47:35;;;;;;;6.88;1.20;;;;;;;;;;5039261;28;20141;-75
2023/01/17 14:50:09;;;;;;;6.80;1.40;;;;;;;;;;5045322;28;20031;-74
2023/01/17 14:52:37;;;;;;;4.25;1.42;;;;;;;;;;5044260;28;20039;-74
2023/01/17 14:55:14;;;;;;;5.65;0.93;;;;;;;;;;5044442;28;20033;-75
2023/01/17 14:57:39;;;;;;;7.05;1.15;;;;;;;;;;5024268;28;20413;-74
2023/01/17 15:00:09;;;;;;;8.65;1.00;;;;;;;;;;5022482;28;20029;-74
2023/01/17 15:02:38;;;;;;;6.90;0.93;;;;;;;;;;5042819;28;20481;-75
2023/01/17 15:05:04;;;;;;;2.88;0.80;;;;;;;;;;5041350;28;20063;-75
2023/01/17 15:07:31;;;;;;;9.23;1.00;;;;;;;;;;5044001;28;20024;-74
2023/01/17 15:09:56;;;;;;;6.38;0.80;;;;;;;;;;5042090;28;20028;-75
2023/01/17 15:12:21;;;;;;;8.10;1.23;;;;;;;;;;5067301;28;20219;-75
2023/01/17 15:14:47;;;;;;;9.07;1.20;;;;;;;;;;5041515;28;21920;-76
2023/01/17 15:17:20;;;;;;;4.07;0.95;;;;;;;;;;5021728;28;20025;-75
2023/01/17 15:19:48;;;;;;;7.30;1.25;;;;;;;;;;5026815;28;20059;-74
2023/01/17 15:22:17;;;;;;;8.00;1.20;;;;;;;;;;5045220;28;20131;-75
2023/01/17 15:24:43;;;;;;;11.27;1.77;;;;;;;;;;5043980;28;20036;-75
2023/01/17 15:27:18;;;;;;;11.25;1.65;;;;;;;;;;5021653;28;20267;-75
2023/01/17 15:29:44;;;;;;;4.50;1.30;;;;;;;;;;5006155;28;20056;-75
2023/01/17 15:32:26;;;;;;;7.47;1.58;;;;;;;;;;5003022;28;20278;-75
2023/01/17 15:34:52;;;;;;;9.52;1.40;;;;;;;;;;5023789;28;20045;-76
2023/01/17 15:37:38;;;;;;;7.07;1.13;;;;;;;;;;5027776;28;20029;-75
2023/01/17 15:40:04;;;;;;;7.15;1.27;;;;;;;;;;5022257;28;20443;-75
2023/01/17 15:42:30;;;;;;;9.70;1.30;;;;;;;;;;5027775;28;20143;-75
2023/01/17 15:45:00;;;;;;;4.18;1.13;;;;;;;;;;5006088;28;20047;-75
2023/01/17 15:47:25;;;;;;;5.00;1.00;;;;;;;;;;5007288;28;20033;-74
2023/01/17 15:49:53;;;;;;;3.58;0.70;;;;;;;;;;5005033;28;20036;-74
2023/01/17 15:52:20;;;;;;;5.13;1.10;;;;;;;;;;5024754;28;20037;-74
2023/01/17 15:54:52;;;;;;;4.72;1.20;;;;;;;;;;5007994;28;20104;-75
2023/01/17 15:57:36;;;;;;;8.27;0.93;;;;;;;;;;5009572;28;20056;-73
2023/01/17 16:00:07;;;;;;;3.88;0.80;;;;;;;;;;5025505;28;20029;-74
2023/01/17 16:02:41;;;;;;;5.75;1.10;;;;;;;;;;5028939;28;20033;-74
2023/01/17 16:05:22;;;;;;;9.05;1.35;;;;;;;;;;5027039;28;20040;-73